Time;durP1;ratioP1;P1;durP2;ratioP2;P2;SDS_P1;SDS_P2;PMS_P1;PMS_P2;Temp;Humidity;BMP_temperature;BMP_pressure;BME280_temperature;BME280_humidity;BME280_pressure;Samples;Min_cycle;Max_cycle;Signal;HPM_P1;HPM_P2
2022/09/05 00:01:47;;;;;;;4.80;4.30;;;;;;;12.80;85.42;99139.88;4234233;27;20117;-70
2022/09/05 00:04:11;;;;;;;5.20;4.70;;;;;;;12.77;86.90;99139.84;4238224;27;20046;-70
2022/09/05 00:06:15;;;;;;;4.90;4.30;;;;;;;12.77;87.37;99146.19;4237872;27;20441;-71
2022/09/05 00:08:16;;;;;;;5.55;4.82;;;;;;;12.82;87.49;99148.63;4238103;27;20031;-71
2022/09/05 00:10:53;;;;;;;5.40;4.65;;;;;;;12.82;87.59;99151.41;4236336;27;20176;-70
2022/09/05 00:12:57;;;;;;;5.32;4.40;;;;;;;12.77;87.21;99146.19;4237485;27;20506;-70
2022/09/05 00:15:24;;;;;;;6.60;4.22;;;;;;;12.76;85.71;99141.81;4237505;27;20055;-70
2022/09/05 00:17:30;;;;;;;4.78;4.10;;;;;;;12.70;86.02;99143.31;4237431;27;20043;-70
2022/09/05 00:19:50;;;;;;;5.32;4.22;;;;;;;12.61;86.00;99140.03;4237441;27;20302;-70
2022/09/05 00:21:58;;;;;;;4.78;4.30;;;;;;;12.56;86.04;99141.16;4218764;28;20088;-70
2022/09/05 00:24:40;;;;;;;8.65;4.28;;;;;;;12.51;86.53;99144.25;4237394;27;20414;-70
2022/09/05 00:27:02;;;;;;;4.97;4.38;;;;;;;12.46;86.40;99141.00;4186617;27;20677;-70
2022/09/05 00:29:20;;;;;;;7.30;5.18;;;;;;;12.41;85.52;99146.84;4236822;27;20412;-70
2022/09/05 00:32:01;;;;;;;5.18;3.90;;;;;;;12.34;85.79;99139.25;4237263;27;20385;-70
2022/09/05 00:34:24;;;;;;;5.53;3.95;;;;;;;12.32;85.77;99145.16;4185418;27;20383;-71
2022/09/05 00:36:44;;;;;;;;;;;;;;;12.32;85.26;99144.34;4237910;27;20051;-70
2022/09/05 00:39:02;;;;;;;4.85;4.35;;;;;;;12.32;85.56;99138.81;4237084;27;19965;-70
2022/09/05 00:41:11;;;;;;;5.38;4.13;;;;;;;12.29;85.73;99145.91;4237337;27;20039;-70
2022/09/05 00:43:42;;;;;;;5.68;4.18;;;;;;;12.29;85.88;99145.91;4237139;27;20070;-70
2022/09/05 00:45:57;;;;;;;4.80;3.88;;;;;;;12.28;86.30;99144.31;4237023;27;20433;-70
2022/09/05 00:48:15;;;;;;;5.22;4.72;;;;;;;12.27;86.35;99153.00;4237540;27;20458;-70
2022/09/05 00:50:34;;;;;;;7.30;4.72;;;;;;;12.25;86.55;99153.41;4236690;27;20134;-70
2022/09/05 00:52:44;;;;;;;6.30;4.68;;;;;;;12.18;86.94;99144.97;4237110;27;20389;-70
2022/09/05 00:55:20;;;;;;;6.70;4.68;;;;;;;12.16;87.07;99152.81;4236657;27;20050;-70
2022/09/05 00:57:46;;;;;;;5.25;4.53;;;;;;;12.15;86.81;99158.75;4236593;27;20427;-70
2022/09/05 01:00:05;;;;;;;6.22;4.07;;;;;;;12.13;86.51;99158.31;4235986;27;20093;-70
2022/09/05 01:02:15;;;;;;;5.32;4.60;;;;;;;12.11;86.64;99166.22;4235128;27;20024;-70
2022/09/05 01:04:23;;;;;;;5.90;4.50;;;;;;;12.03;86.15;99157.78;4236838;27;20023;-70
2022/09/05 01:06:45;;;;;;;6.38;4.85;;;;;;;12.05;86.70;99168.50;4236936;27;20043;-70
2022/09/05 01:09:04;;;;;;;5.95;4.80;;;;;;;12.01;86.95;99165.69;4235174;27;20081;-70
2022/09/05 01:11:42;;;;;;;7.35;5.05;;;;;;;12.01;87.86;99168.47;4236906;27;20039;-70
2022/09/05 01:14:06;;;;;;;6.78;4.80;;;;;;;12.05;88.40;99163.75;4235727;27;20306;-70
2022/09/05 01:16:20;;;;;;;5.28;4.57;;;;;;;12.04;88.69;99164.13;4236646;27;20476;-70
2022/09/05 01:18:33;;;;;;;6.55;4.32;;;;;;;12.03;88.92;99159.75;4235881;27;20031;-70
2022/09/05 01:21:05;;;;;;;5.88;4.80;;;;;;;12.02;89.93;99163.72;4236984;27;20074;-70
2022/09/05 01:23:35;;;;;;;4.88;4.32;;;;;;;12.03;89.43;99160.56;4236408;27;20092;-70
2022/09/05 01:25:43;;;;;;;5.05;4.40;;;;;;;12.03;89.47;99168.09;4236528;27;20093;-70
2022/09/05 01:27:53;;;;;;;5.70;5.10;;;;;;;12.02;89.67;99163.72;4236754;27;20067;-70
2022/09/05 01:30:06;;;;;;;6.00;5.30;;;;;;;11.99;90.06;99159.69;4234864;27;20088;-70
2022/09/05 01:32:25;;;;;;;5.40;4.82;;;;;;;12.00;90.38;99168.84;4235623;27;20422;-70
2022/09/05 01:34:48;;;;;;;5.18;4.68;;;;;;;11.98;90.25;99169.19;4235360;27;20091;-70
2022/09/05 01:37:08;;;;;;;5.75;5.07;;;;;;;11.97;89.65;99167.59;4237957;27;20089;-70
2022/09/05 01:39:42;;;;;;;6.10;5.05;;;;;;;11.95;89.31;99155.28;4235838;27;20035;-70
2022/09/05 01:41:47;;;;;;;;;;;;;;;11.94;89.83;99160.03;4237494;27;20086;-70
2022/09/05 01:44:00;;;;;;;5.13;4.63;;;;;;;11.91;89.52;99157.97;4236790;27;19954;-70
2022/09/05 01:46:29;;;;;;;6.28;4.93;;;;;;;11.92;89.04;99162.38;4236222;27;20057;-70
2022/09/05 01:48:39;;;;;;;5.30;4.80;;;;;;;11.89;88.70;99165.06;4232307;27;20454;-70
2022/09/05 01:51:07;;;;;;;5.68;4.55;;;;;;;11.82;88.23;99158.22;4236022;27;20130;-70
2022/09/05 01:53:40;;;;;;;5.50;5.00;;;;;;;11.78;87.34;99159.31;4235670;27;20039;-70
2022/09/05 01:56:01;;;;;;;7.05;4.72;;;;;;;11.77;86.55;99160.47;4197034;27;20478;-69
2022/09/05 01:58:14;;;;;;;5.95;5.35;;;;;;;11.73;87.03;99160.41;4235835;27;20039;-71
2022/09/05 02:00:23;;;;;;;5.43;4.80;;;;;;;11.70;87.05;99166.69;4235557;27;20127;-70
2022/09/05 02:02:55;;;;;;;5.03;4.53;;;;;;;11.67;87.15;99167.44;4236294;27;20043;-70
2022/09/05 02:05:07;;;;;;;5.25;4.57;;;;;;;11.69;87.22;99162.31;4234286;27;20043;-70
2022/09/05 02:07:30;;;;;;;5.40;4.72;;;;;;;11.62;88.25;99166.94;4235475;28;20057;-70
2022/09/05 02:09:51;;;;;;;5.60;4.75;;;;;;;11.59;88.40;99160.16;4235282;28;20038;-70
2022/09/05 02:12:01;;;;;;;6.43;4.88;;;;;;;11.57;88.45;99159.72;4235572;28;20147;-70
2022/09/05 02:14:21;;;;;;;5.45;4.90;;;;;;;11.54;87.99;99158.50;4235206;28;20358;-71
2022/09/05 02:16:37;;;;;;;5.35;4.82;;;;;;;11.52;88.56;99165.56;4236006;28;20110;-70
2022/09/05 02:18:52;;;;;;;6.53;5.80;;;;;;;11.51;88.29;99161.22;4235470;28;20058;-70
2022/09/05 02:20:59;;;;;;;5.93;5.10;;;;;;;11.51;88.74;99158.44;4236219;28;20066;-70
2022/09/05 02:23:18;;;;;;;5.90;4.90;;;;;;;11.49;89.23;99166.28;4236282;28;20035;-70
2022/09/05 02:25:27;;;;;;;5.90;5.30;;;;;;;11.45;89.62;99163.47;4236049;28;20051;-70
2022/09/05 02:27:36;;;;;;;7.20;5.20;;;;;;;11.46;89.69;99162.28;4235805;28;20046;-70
2022/09/05 02:30:05;;;;;;;5.43;4.93;;;;;;;11.47;89.58;99160.31;4235825;28;20035;-70
2022/09/05 02:32:08;;;;;;;5.97;5.38;;;;;;;11.45;89.60;99169.00;4234923;28;20062;-70
2022/09/05 02:34:15;;;;;;;7.60;5.47;;;;;;;11.43;89.11;99156.69;4235432;28;20031;-70
2022/09/05 02:36:31;;;;;;;6.13;5.07;;;;;;;11.39;89.66;99159.38;4235586;27;20120;-70
2022/09/05 02:38:42;;;;;;;5.57;4.97;;;;;;;11.39;90.21;99158.59;4235290;28;20051;-70
2022/09/05 02:41:25;;;;;;;7.53;5.22;;;;;;;11.38;90.92;99159.75;4236150;28;20051;-70
2022/09/05 02:44:04;;;;;;;8.23;5.50;;;;;;;11.37;91.19;99163.69;4207359;28;20361;-70
2022/09/05 02:46:25;;;;;;;7.40;5.60;;;;;;;11.38;91.20;99157.00;4169905;27;20656;-70
2022/09/05 02:48:28;;;;;;;7.13;5.25;;;;;;;11.36;90.74;99153.78;4237413;27;20515;-70
2022/09/05 02:50:38;;;;;;;5.63;5.13;;;;;;;11.35;91.19;99166.84;4238373;27;20079;-70
2022/09/05 02:52:41;;;;;;;6.10;5.18;;;;;;;11.32;91.85;99159.25;4239204;27;20287;-70
2022/09/05 02:54:45;;;;;;;6.55;5.85;;;;;;;11.34;92.52;99156.13;4237064;27;20074;-70
2022/09/05 02:56:48;;;;;;;5.85;5.15;;;;;;;11.35;92.71;99160.50;4237345;27;20067;-70
2022/09/05 02:59:36;;;;;;;6.00;5.40;;;;;;;11.36;92.72;99151.03;4237552;27;20040;-70
2022/09/05 03:01:46;;;;;;;7.13;5.80;;;;;;;11.35;91.35;99147.44;4175179;27;20052;-70
2022/09/05 03:04:13;;;;;;;7.25;5.63;;;;;;;11.35;91.16;99147.44;4237704;27;20082;-70
2022/09/05 03:06:22;;;;;;;6.70;5.78;;;;;;;11.33;91.37;99144.22;4220992;27;20423;-70
2022/09/05 03:08:49;;;;;;;8.10;6.00;;;;;;;11.31;92.64;99141.03;4237480;27;20042;-70
2022/09/05 03:11:10;;;;;;;7.45;5.63;;;;;;;11.28;92.43;99146.50;4236955;27;20430;-70
2022/09/05 03:13:40;;;;;;;7.13;5.50;;;;;;;11.32;90.99;99155.69;4237308;27;20187;-70
2022/09/05 03:16:15;;;;;;;9.52;5.50;;;;;;;11.32;89.82;99144.59;4200909;27;20502;-70
2022/09/05 03:18:34;;;;;;;7.68;5.13;;;;;;;11.32;89.81;99147.38;4236617;27;20039;-70
2022/09/05 03:21:14;;;;;;;6.65;5.28;;;;;;;11.28;90.33;99155.63;4235182;27;20326;-70
2022/09/05 03:23:35;;;;;;;5.95;5.32;;;;;;;11.21;90.75;99156.28;4203830;27;20066;-70
2022/09/05 03:25:57;;;;;;;5.85;5.25;;;;;;;11.18;89.96;99148.72;4236402;27;20051;-70
2022/09/05 03:28:46;;;;;;;5.72;5.13;;;;;;;11.11;89.88;99145.00;4236773;27;20488;-70
2022/09/05 03:31:31;;;;;;;7.32;5.40;;;;;;;11.03;91.10;99155.13;4196250;28;20048;-70
2022/09/05 03:33:44;;;;;;;5.95;5.18;;;;;;;10.96;91.52;99149.44;4237103;27;20064;-70
2022/09/05 03:35:45;;;;;;;6.43;5.35;;;;;;;10.93;91.55;99159.28;4219629;27;20122;-70
2022/09/05 03:38:03;;;;;;;6.97;5.03;;;;;;;10.91;91.50;99155.25;4237651;27;20066;-70
2022/09/05 03:40:18;;;;;;;8.65;5.32;;;;;;;10.86;91.91;99148.06;4236411;27;20038;-70
2022/09/05 03:42:42;;;;;;;7.88;5.28;;;;;;;10.83;92.70;99139.66;4236994;27;20076;-70
2022/09/05 03:44:55;;;;;;;5.75;5.15;;;;;;;10.82;92.67;99152.69;4237028;27;20580;-70
2022/09/05 03:47:20;;;;;;;5.60;5.00;;;;;;;10.83;91.70;99153.50;4237423;27;20039;-70
2022/09/05 03:49:31;;;;;;;8.80;5.32;;;;;;;10.81;91.86;99142.00;4236995;27;20046;-70
2022/09/05 03:52:10;;;;;;;9.00;6.28;;;;;;;10.80;92.32;99159.78;4236551;27;20066;-70
2022/09/05 03:54:43;;;;;;;6.60;5.63;;;;;;;10.77;92.67;99158.53;4235850;27;20090;-70
2022/09/05 03:57:03;;;;;;;5.93;5.32;;;;;;;10.76;92.86;99156.94;4236576;27;20039;-70
2022/09/05 04:00:05;;;;;;;6.72;5.65;;;;;;;10.72;91.56;99156.06;4232050;27;20051;-70
2022/09/05 04:02:09;;;;;;;5.97;5.38;;;;;;;10.70;90.84;99150.09;4166830;28;20152;-70
2022/09/05 04:04:21;;;;;;;7.95;5.88;;;;;;;10.66;91.42;99155.53;4167316;28;20033;-70
2022/09/05 04:06:34;;;;;;;6.78;5.13;;;;;;;10.59;91.96;99160.94;4173186;27;20041;-70
2022/09/05 04:09:03;;;;;;;5.65;5.07;;;;;;;10.55;91.61;99153.69;4237217;27;20478;-70
2022/09/05 04:11:18;;;;;;;6.10;5.50;;;;;;;10.56;92.00;99152.53;4235187;27;20483;-70
2022/09/05 04:13:27;;;;;;;6.43;5.20;;;;;;;10.58;90.80;99156.53;4237726;27;20050;-70
2022/09/05 04:15:31;;;;;;;7.78;5.55;;;;;;;10.62;90.96;99153.84;4237149;27;20047;-70
2022/09/05 04:18:00;;;;;;;6.35;5.43;;;;;;;10.65;91.28;99153.91;4237521;27;20398;-70
2022/09/05 04:20:13;;;;;;;8.00;5.93;;;;;;;10.67;93.66;99156.31;4236837;27;20047;-70
2022/09/05 04:22:44;;;;;;;7.75;5.93;;;;;;;10.71;93.72;99156.41;4237322;27;20035;-70
2022/09/05 04:24:56;;;;;;;8.45;6.60;;;;;;;10.75;94.96;99162.81;4237690;27;20356;-70
2022/09/05 04:27:19;;;;;;;7.32;5.97;;;;;;;10.78;94.74;99164.88;4237727;27;20085;-70
2022/09/05 04:29:19;;;;;;;7.68;6.03;;;;;;;10.82;95.04;99158.25;4236670;27;20047;-70
2022/09/05 04:31:52;;;;;;;8.13;6.03;;;;;;;10.85;94.63;99163.06;4236595;27;20074;-70
2022/09/05 04:34:01;;;;;;;6.82;5.43;;;;;;;10.87;94.00;99165.47;4236916;27;20535;-70
2022/09/05 04:36:27;;;;;;;7.03;5.97;;;;;;;10.89;94.16;99165.91;4237753;27;20043;-70
2022/09/05 04:38:37;;;;;;;7.90;5.55;;;;;;;10.92;93.72;99170.69;4236480;27;20074;-70
2022/09/05 04:40:59;;;;;;;9.80;6.43;;;;;;;10.94;93.90;99171.97;4237151;27;20399;-70
2022/09/05 04:43:09;;;;;;;7.82;6.38;;;;;;;10.96;94.01;99171.59;4173789;27;20583;-70
2022/09/05 04:45:14;;;;;;;7.03;6.10;;;;;;;11.01;94.37;99173.28;4236362;27;20043;-70
2022/09/05 04:47:35;;;;;;;7.03;5.95;;;;;;;11.06;94.83;99179.31;4237318;27;20281;-70
2022/09/05 04:49:48;;;;;;;9.65;6.20;;;;;;;11.11;95.16;99186.53;4236316;27;20046;-70
2022/09/05 04:52:15;;;;;;;;;;;;;;;11.12;95.12;99188.94;4237720;27;20043;-70
2022/09/05 04:54:30;;;;;;;6.55;5.60;;;;;;;11.11;95.44;99186.53;4203708;27;19916;-70
2022/09/05 04:56:36;;;;;;;9.38;5.47;;;;;;;11.12;94.70;99188.13;4237342;27;20114;-70
2022/09/05 04:58:43;;;;;;;7.00;6.10;;;;;;;11.11;94.44;99192.88;4236717;27;20126;-70
2022/09/05 05:00:46;;;;;;;13.02;7.20;;;;;;;11.13;94.45;99187.78;4236433;27;20086;-70
2022/09/05 05:02:52;;;;;;;8.90;6.80;;;;;;;11.15;95.02;99198.47;4236481;27;20050;-70
2022/09/05 05:05:04;;;;;;;7.88;6.90;;;;;;;11.18;95.04;99204.09;4235527;27;20413;-70
2022/09/05 05:07:42;;;;;;;10.73;6.57;;;;;;;11.21;95.36;99197.03;4236767;27;20035;-70
2022/09/05 05:09:48;;;;;;;8.02;7.22;;;;;;;11.27;95.43;99201.13;4166566;28;20053;-70
2022/09/05 05:12:03;;;;;;;7.75;6.93;;;;;;;11.29;95.68;99201.53;4207549;27;20054;-70
2022/09/05 05:14:12;;;;;;;8.93;7.15;;;;;;;11.33;95.65;99199.63;4236386;27;20111;-70
2022/09/05 05:16:23;;;;;;;9.68;7.10;;;;;;;11.40;95.61;99204.53;4235911;27;20027;-70
2022/09/05 05:18:35;;;;;;;8.75;7.28;;;;;;;11.46;95.25;99206.63;4236337;27;20057;-70
2022/09/05 05:20:51;;;;;;;8.18;6.93;;;;;;;11.52;94.80;99207.94;4236818;27;20254;-70
2022/09/05 05:23:00;;;;;;;8.55;6.68;;;;;;;11.59;94.07;99217.56;4236277;27;20505;-70
2022/09/05 05:25:01;;;;;;;8.13;6.40;;;;;;;11.62;93.38;99212.09;4236093;27;20039;-70
2022/09/05 05:27:09;;;;;;;10.77;6.40;;;;;;;11.69;93.23;99222.50;4236585;27;20047;-70
2022/09/05 05:29:44;;;;;;;9.68;6.25;;;;;;;11.74;92.90;99220.22;4236146;27;20077;-70
2022/09/05 05:31:58;;;;;;;7.20;6.05;;;;;;;11.79;92.87;99217.16;4236025;27;20130;-70
2022/09/05 05:34:13;;;;;;;9.52;5.32;;;;;;;11.84;92.60;99221.63;4235179;27;20307;-70
2022/09/05 05:36:26;;;;;;;7.38;5.80;;;;;;;11.87;92.41;99220.09;4236134;27;20227;-70
2022/09/05 05:38:29;;;;;;;8.50;6.43;;;;;;;11.94;92.63;99223.00;4236409;27;20480;-70
2022/09/05 05:40:31;;;;;;;6.93;6.15;;;;;;;11.96;92.69;99218.69;4236685;27;20265;-70
2022/09/05 05:42:32;;;;;;;7.03;5.85;;;;;;;12.02;92.41;99230.28;4235476;27;20460;-70
2022/09/05 05:44:36;;;;;;;10.15;6.10;;;;;;;12.07;92.00;99232.72;4236487;27;20040;-70
2022/09/05 05:46:40;;;;;;;6.95;5.68;;;;;;;12.12;91.74;99220.53;4236796;27;20680;-70
2022/09/05 05:48:43;;;;;;;9.38;6.18;;;;;;;12.20;90.57;99230.56;4235997;27;20050;-70
2022/09/05 05:51:09;;;;;;;10.52;6.50;;;;;;;12.24;90.84;99228.66;4235906;27;20422;-70
2022/09/05 05:53:24;;;;;;;7.55;5.93;;;;;;;12.27;91.01;99228.72;4236158;27;20051;-70
2022/09/05 05:55:37;;;;;;;8.55;6.65;;;;;;;12.32;91.32;99228.41;4236779;27;20082;-70
2022/09/05 05:57:47;;;;;;;;;;;;;;;12.36;91.45;99225.69;4236814;27;20514;-70
2022/09/05 06:00:08;;;;;;;10.82;6.70;;;;;;;12.39;91.58;99224.94;4235491;27;19964;-70
2022/09/05 06:02:36;;;;;;;17.75;7.18;;;;;;;12.44;91.84;99224.63;4236309;27;20184;-70
2022/09/05 06:04:42;;;;;;;6.82;6.07;;;;;;;12.49;91.64;99227.06;4236309;27;20553;-70
2022/09/05 06:06:48;;;;;;;11.98;7.60;;;;;;;12.55;91.02;99231.16;4235858;27;20437;-70
2022/09/05 06:09:07;;;;;;;8.10;6.10;;;;;;;12.63;90.82;99226.50;4236353;28;20279;-70
2022/09/05 06:11:21;;;;;;;8.55;6.60;;;;;;;12.71;91.31;99230.19;4236083;28;20051;-70
2022/09/05 06:13:40;;;;;;;7.93;5.95;;;;;;;12.80;90.47;99234.28;4235033;28;20072;-70
2022/09/05 06:15:40;;;;;;;9.00;7.18;;;;;;;12.88;91.17;99236.00;4236277;28;20035;-70
2022/09/05 06:18:19;;;;;;;9.35;7.03;;;;;;;12.96;90.94;99227.78;4236107;28;20160;-70
2022/09/05 06:20:48;;;;;;;8.63;7.03;;;;;;;13.06;90.63;99238.22;4236193;27;20390;-70
2022/09/05 06:23:17;;;;;;;9.15;6.35;;;;;;;13.14;90.64;99229.59;4239707;27;20043;-70
2022/09/05 06:25:45;;;;;;;7.80;6.90;;;;;;;13.26;90.60;99231.41;4239768;27;20042;-70
2022/09/05 06:27:52;;;;;;;14.65;7.90;;;;;;;13.35;90.72;99234.69;4238346;27;20070;-70
2022/09/05 06:30:12;;;;;;;8.73;6.57;;;;;;;13.43;90.36;99233.59;4238877;27;20137;-70
2022/09/05 06:32:42;;;;;;;11.00;6.72;;;;;;;13.56;90.37;99238.88;4239356;27;20455;-70
2022/09/05 06:35:06;;;;;;;10.32;7.68;;;;;;;13.68;89.96;99242.22;4239283;27;20439;-70
2022/09/05 06:37:23;;;;;;;8.13;6.70;;;;;;;13.84;89.59;99238.41;4240542;27;20045;-70
2022/09/05 06:39:43;;;;;;;10.38;7.40;;;;;;;13.93;88.55;99247.25;4239102;27;20051;-70
2022/09/05 06:42:08;;;;;;;8.07;6.55;;;;;;;14.09;88.73;99242.25;4238904;27;20082;-70
2022/09/05 06:44:54;;;;;;;15.98;8.48;;;;;;;14.22;88.30;99237.97;4237626;27;20435;-70
2022/09/05 06:46:58;;;;;;;12.55;8.77;;;;;;;14.31;87.50;99234.88;4192427;27;20289;-70
2022/09/05 06:49:16;;;;;;;11.98;8.27;;;;;;;14.42;87.17;99237.75;4238587;27;20104;-70
2022/09/05 06:51:46;;;;;;;10.93;9.55;;;;;;;14.61;86.16;99235.56;4238974;27;20044;-70
2022/09/05 06:54:09;;;;;;;11.35;8.60;;;;;;;14.82;86.03;99236.91;4238931;27;20051;-70
2022/09/05 06:56:31;;;;;;;12.25;9.05;;;;;;;14.97;85.10;99232.19;4238994;27;20035;-70
2022/09/05 06:58:50;;;;;;;9.05;7.80;;;;;;;15.09;83.68;99235.47;4238197;27;20047;-70
2022/09/05 07:00:58;;;;;;;9.23;7.80;;;;;;;15.17;82.50;99236.31;4239165;27;20051;-70
2022/09/05 07:03:37;;;;;;;13.00;8.40;;;;;;;15.19;83.31;99233.91;4238817;27;20035;-70
2022/09/05 07:05:40;;;;;;;13.82;8.18;;;;;;;15.24;83.64;99238.34;4169463;28;20394;-70
2022/09/05 07:07:56;;;;;;;8.88;7.55;;;;;;;15.26;83.56;99233.16;4208215;27;20155;-70
2022/09/05 07:10:02;;;;;;;9.68;8.73;;;;;;;15.37;83.51;99237.56;4238142;27;20043;-70
2022/09/05 07:12:16;;;;;;;9.68;8.63;;;;;;;15.48;82.92;99236.84;4238600;27;20391;-70
2022/09/05 07:14:24;;;;;;;8.82;7.93;;;;;;;15.54;83.22;99243.63;4239403;27;20118;-71
2022/09/05 07:16:36;;;;;;;9.70;8.68;;;;;;;15.60;83.69;99236.47;4239255;27;20039;-70
2022/09/05 07:18:52;;;;;;;9.48;8.48;;;;;;;15.67;83.06;99233.75;4237999;27;20065;-70
2022/09/05 07:20:57;;;;;;;9.95;8.70;;;;;;;15.70;82.53;99239.31;4238950;27;20043;-70
2022/09/05 07:23:22;;;;;;;9.07;7.97;;;;;;;15.69;78.71;99237.72;4237948;27;20050;-70
2022/09/05 07:25:32;;;;;;;9.63;8.63;;;;;;;15.78;81.52;99250.50;4238644;27;20039;-70
2022/09/05 07:27:46;;;;;;;8.30;7.28;;;;;;;15.84;81.53;99240.56;4238793;27;20340;-70
2022/09/05 07:29:47;;;;;;;9.30;8.40;;;;;;;15.91;81.92;99238.59;4236904;27;20039;-70
2022/09/05 07:31:53;;;;;;;11.52;8.45;;;;;;;16.00;82.68;99252.16;4238509;27;20657;-70
2022/09/05 07:34:11;;;;;;;8.68;7.88;;;;;;;16.10;81.93;99251.38;4238213;27;20612;-70
2022/09/05 07:36:19;;;;;;;10.10;7.97;;;;;;;16.18;81.42;99255.78;4239125;27;20591;-70
2022/09/05 07:38:27;;;;;;;9.35;8.38;;;;;;;16.23;82.04;99244.22;4238556;27;20031;-70
2022/09/05 07:40:34;;;;;;;9.73;7.40;;;;;;;16.33;81.04;99250.22;4238027;27;20456;-71
2022/09/05 07:42:42;;;;;;;9.98;8.70;;;;;;;16.44;80.43;99253.81;4238393;27;20042;-71
2022/09/05 07:44:50;;;;;;;10.13;7.93;;;;;;;16.50;80.88;99246.63;4238262;27;20043;-70
2022/09/05 07:47:00;;;;;;;9.75;8.52;;;;;;;16.60;79.93;99243.03;4238642;27;20382;-70
2022/09/05 07:49:07;;;;;;;9.75;8.25;;;;;;;16.71;79.78;99249.44;4237921;27;20066;-70
2022/09/05 07:51:18;;;;;;;9.35;8.10;;;;;;;16.82;79.46;99246.66;4238312;27;20134;-70
2022/09/05 07:53:20;;;;;;;9.02;7.28;;;;;;;16.89;78.42;99249.44;4238147;27;20043;-70
2022/09/05 07:55:25;;;;;;;8.00;7.20;;;;;;;16.98;78.42;99252.59;4238119;27;20039;-70
2022/09/05 07:57:30;;;;;;;9.98;7.68;;;;;;;17.04;78.48;99250.97;4238390;27;20043;-70
2022/09/05 07:59:39;;;;;;;8.13;7.05;;;;;;;17.14;78.50;99254.97;4237416;27;20598;-70
2022/09/05 08:01:46;;;;;;;7.70;6.93;;;;;;;17.22;77.69;99242.56;4238384;27;20043;-70
2022/09/05 08:03:54;;;;;;;8.43;7.57;;;;;;;17.25;77.92;99252.94;4237043;27;20047;-70
2022/09/05 08:05:59;;;;;;;7.57;6.78;;;;;;;17.28;77.55;99243.72;4238276;27;20070;-70
2022/09/05 08:08:02;;;;;;;8.13;7.18;;;;;;;17.33;77.52;99237.72;4238244;27;20035;-70
2022/09/05 08:10:18;;;;;;;8.48;6.80;;;;;;;17.41;77.27;99242.09;4236814;27;20811;-71
2022/09/05 08:12:25;;;;;;;10.70;7.30;;;;;;;17.47;77.00;99241.69;4238245;27;20765;-71
2022/09/05 08:14:42;;;;;;;9.50;7.22;;;;;;;17.53;76.42;99238.03;4237566;27;20055;-71
2022/09/05 08:16:43;;;;;;;9.18;7.35;;;;;;;17.60;76.43;99238.00;4237772;27;20604;-71
2022/09/05 08:18:48;;;;;;;7.55;6.82;;;;;;;17.75;76.59;99235.97;4237076;27;20463;-71
2022/09/05 08:21:04;;;;;;;9.10;6.07;;;;;;;17.86;75.63;99236.69;4238022;27;20139;-71
2022/09/05 08:23:49;;;;;;;7.40;6.50;;;;;;;17.97;74.77;99239.44;4238565;27;20475;-71
2022/09/05 08:26:06;;;;;;;6.65;5.90;;;;;;;18.04;74.33;99231.00;4237072;27;20112;-71
2022/09/05 08:28:20;;;;;;;6.65;6.03;;;;;;;18.16;74.16;99229.72;4237399;27;20150;-71
2022/09/05 08:30:21;;;;;;;7.85;6.80;;;;;;;18.21;73.57;99230.09;4237538;27;20053;-71
2022/09/05 08:32:37;;;;;;;7.20;6.50;;;;;;;18.27;72.94;99226.81;4237749;27;20051;-71
2022/09/05 08:34:52;;;;;;;8.10;6.88;;;;;;;18.35;72.42;99219.97;4237100;27;20626;-71
2022/09/05 08:36:55;;;;;;;7.78;6.05;;;;;;;18.45;72.46;99228.31;4236994;27;20043;-71
2022/09/05 08:39:01;;;;;;;6.45;5.70;;;;;;;18.55;72.30;99223.03;4236986;27;20121;-71
2022/09/05 08:41:11;;;;;;;6.85;6.20;;;;;;;18.71;72.28;99215.69;4237702;27;20653;-71
2022/09/05 08:43:31;;;;;;;6.10;5.45;;;;;;;18.84;71.77;99218.75;4236859;27;20051;-71
2022/09/05 08:45:36;;;;;;;7.13;5.68;;;;;;;18.97;71.07;99211.41;4237680;27;20050;-71
2022/09/05 08:47:49;;;;;;;6.22;5.63;;;;;;;18.99;68.30;99211.00;4237462;27;20043;-71
2022/09/05 08:50:09;;;;;;;6.60;6.00;;;;;;;19.08;70.03;99211.28;4236861;27;20472;-71
2022/09/05 08:52:13;;;;;;;5.95;5.45;;;;;;;19.14;70.24;99217.25;4237058;27;20043;-71
2022/09/05 08:54:34;;;;;;;8.02;6.43;;;;;;;19.23;68.97;99215.53;4236447;27;20050;-71
2022/09/05 08:56:54;;;;;;;6.13;5.50;;;;;;;19.31;69.08;99208.63;4237229;27;20046;-71
2022/09/05 08:59:09;;;;;;;8.13;6.15;;;;;;;19.34;69.10;99201.38;4236405;27;20034;-71
2022/09/05 09:01:33;;;;;;;5.80;5.30;;;;;;;19.44;68.47;99208.06;4237098;27;20039;-71
2022/09/05 09:03:52;;;;;;;8.27;5.30;;;;;;;19.60;67.95;99209.06;4236813;27;20047;-71
2022/09/05 09:06:01;;;;;;;6.03;5.50;;;;;;;19.71;67.00;99208.16;4236878;27;20051;-71
2022/09/05 09:08:19;;;;;;;6.20;5.45;;;;;;;19.75;66.60;99198.44;4236713;27;20474;-71
2022/09/05 09:10:38;;;;;;;5.57;5.05;;;;;;;19.82;66.71;99197.56;4236727;27;20023;-71
2022/09/05 09:12:53;;;;;;;6.90;5.15;;;;;;;19.78;67.43;99203.25;4237097;27;20047;-71
2022/09/05 09:15:09;;;;;;;8.18;4.75;;;;;;;19.84;67.72;99200.72;4236475;27;20047;-71
2022/09/05 09:17:27;;;;;;;5.28;4.65;;;;;;;19.88;68.01;99204.28;4236680;27;20053;-71
2022/09/05 09:20:08;;;;;;;5.22;4.70;;;;;;;19.90;67.33;99204.66;4236172;27;20039;-71
2022/09/05 09:22:35;;;;;;;6.18;5.35;;;;;;;20.04;66.82;99198.84;4225054;27;20100;-71
2022/09/05 09:24:43;;;;;;;5.60;4.63;;;;;;;20.14;66.36;99202.69;4236940;27;20047;-71
2022/09/05 09:27:08;;;;;;;8.70;5.35;;;;;;;20.25;66.12;99199.72;4236720;27;20057;-71
2022/09/05 09:29:12;;;;;;;6.70;4.47;;;;;;;20.34;65.85;99195.13;4235591;27;20043;-71
2022/09/05 09:31:35;;;;;;;5.53;4.50;;;;;;;20.65;65.60;99192.25;4236971;27;20495;-71
2022/09/05 09:33:54;;;;;;;5.90;4.13;;;;;;;20.95;64.42;99194.09;4236724;27;20471;-71
2022/09/05 09:36:15;;;;;;;4.57;4.00;;;;;;;21.22;63.38;99186.31;4236061;27;20042;-71
2022/09/05 09:38:15;;;;;;;7.25;4.38;;;;;;;21.55;63.39;99184.47;4235593;27;20066;-71
2022/09/05 09:40:40;;;;;;;6.18;4.10;;;;;;;21.81;61.61;99177.03;4236023;27;20058;-71
2022/09/05 09:42:50;;;;;;;5.80;4.40;;;;;;;21.98;60.98;99175.03;4236545;27;20483;-71
2022/09/05 09:45:20;;;;;;;5.20;4.40;;;;;;;22.11;60.62;99170.34;4235932;27;20043;-71
2022/09/05 09:47:44;;;;;;;4.80;4.00;;;;;;;22.09;59.90;99172.00;4236714;27;20321;-71
2022/09/05 09:50:09;;;;;;;5.32;4.47;;;;;;;22.05;59.27;99174.88;4235885;27;20039;-71
2022/09/05 09:52:16;;;;;;;5.88;4.45;;;;;;;22.05;60.19;99171.25;4235888;27;20433;-71
2022/09/05 09:54:50;;;;;;;5.35;4.80;;;;;;;22.05;59.78;99172.06;4236600;27;20027;-71
2022/09/05 09:57:15;;;;;;;5.68;4.38;;;;;;;22.02;59.17;99167.31;4236413;27;20402;-71
2022/09/05 09:59:28;;;;;;;7.70;5.35;;;;;;;22.01;58.19;99162.09;4235611;27;20043;-71
2022/09/05 10:01:51;;;;;;;9.05;6.32;;;;;;;22.01;57.54;99170.53;4235589;27;20047;-71
2022/09/05 10:04:27;;;;;;;11.30;6.20;;;;;;;22.06;57.47;99156.72;4236247;27;20047;-71
2022/09/05 10:06:49;;;;;;;12.13;6.03;;;;;;;22.11;57.59;99161.88;4201286;27;20208;-71
2022/09/05 10:09:28;;;;;;;7.43;5.57;;;;;;;22.38;56.90;99167.25;4235853;27;20054;-71
2022/09/05 10:12:08;;;;;;;14.50;5.88;;;;;;;22.66;55.10;99157.25;4235387;28;20364;-71
2022/09/05 10:14:46;;;;;;;11.55;5.70;;;;;;;22.84;54.87;99156.78;4217645;28;20032;-71
2022/09/05 10:17:04;;;;;;;14.82;5.55;;;;;;;22.96;54.75;99156.06;4235257;28;20039;-71
2022/09/05 10:19:18;;;;;;;9.93;6.10;;;;;;;23.12;54.30;99152.41;4234531;28;20379;-71
2022/09/05 10:21:36;;;;;;;7.25;5.55;;;;;;;23.10;53.44;99154.88;4235692;28;20050;-71
2022/09/05 10:23:48;;;;;;;9.30;5.90;;;;;;;23.14;53.66;99152.72;4236076;28;20035;-71
2022/09/05 10:26:00;;;;;;;6.28;5.78;;;;;;;23.28;53.04;99143.06;4236329;28;20035;-71
2022/09/05 10:28:12;;;;;;;5.97;5.47;;;;;;;23.30;52.98;99153.91;4236464;28;20053;-71
2022/09/05 10:30:21;;;;;;;6.93;5.85;;;;;;;23.41;53.20;99143.09;4235735;28;20050;-71
2022/09/05 10:32:24;;;;;;;7.22;4.82;;;;;;;23.54;52.39;99139.03;4236013;28;20211;-71
2022/09/05 10:34:44;;;;;;;7.88;4.20;;;;;;;23.59;51.67;99149.00;4236155;28;20297;-71
2022/09/05 10:36:53;;;;;;;5.30;4.13;;;;;;;23.47;51.92;99141.28;4235550;27;20509;-71
2022/09/05 10:39:02;;;;;;;4.40;4.00;;;;;;;23.33;52.93;99138.88;4235272;28;20104;-71
2022/09/05 10:41:12;;;;;;;4.70;3.97;;;;;;;23.24;53.25;99131.06;4236010;28;20035;-71
2022/09/05 10:43:23;;;;;;;8.07;4.20;;;;;;;23.35;53.15;99144.91;4236567;28;20071;-71
2022/09/05 10:45:59;;;;;;;8.98;3.95;;;;;;;23.33;52.54;99130.41;4236314;28;20253;-71